createdAt,value
2018-02-25T00:00:25.982Z,103257.90
2018-02-25T00:02:55.112Z,103264.31
2018-02-25T00:05:23.448Z,103258.84
2018-02-25T00:07:52.027Z,103256.70
2018-02-25T00:10:20.493Z,103267.75
2018-02-25T00:12:49.572Z,103257.72
2018-02-25T00:15:17.912Z,103256.52
2018-02-25T00:17:47.052Z,103256.94
2018-02-25T00:20:15.371Z,103256.54
2018-02-25T00:22:43.767Z,103258.89
2018-02-25T00:25:12.114Z,103254.34
2018-02-25T00:27:40.454Z,103261.18
2018-02-25T00:30:08.771Z,103246.81
2018-02-25T00:32:37.389Z,103260.52
2018-02-25T00:35:06.458Z,103257.64
2018-02-25T00:37:34.792Z,103254.78
2018-02-25T00:40:03.275Z,103255.38
2018-02-25T00:42:31.594Z,103253.51
2018-02-25T00:45:00.757Z,103258.28
2018-02-25T00:47:29.134Z,103259.38
2018-02-25T00:49:57.467Z,103258.76
2018-02-25T00:52:26.536Z,103268.14
2018-02-25T00:54:55.156Z,103262.08
2018-02-25T00:57:24.555Z,103265.25
2018-02-25T00:59:53.653Z,103269.58
2018-02-25T01:02:22.782Z,103269.58
2018-02-25T01:04:51.106Z,103270.12
2018-02-25T01:07:19.463Z,103262.97
2018-02-25T01:09:47.808Z,103267.77
2018-02-25T01:12:16.156Z,103269.24
2018-02-25T01:14:44.510Z,103271.41
2018-02-25T01:17:13.463Z,103267.58
2018-02-25T01:19:41.776Z,103266.63
2018-02-25T01:22:10.123Z,103266.67
2018-02-25T01:24:38.515Z,103271.33
2018-02-25T01:27:06.838Z,103279.83
2018-02-25T01:29:35.908Z,103269.53
2018-02-25T01:32:04.241Z,103266.20
2018-02-25T01:34:32.571Z,103271.12
2018-02-25T01:37:00.897Z,103271.40
2018-02-25T01:39:29.589Z,103266.36
2018-02-25T01:41:57.904Z,103267.37
2018-02-25T01:44:26.247Z,103268.62
2018-02-25T01:46:54.589Z,103272.06
2018-02-25T01:49:23.716Z,103267.45
2018-02-25T01:51:52.090Z,103274.84
2018-02-25T01:54:20.441Z,103268.84
2018-02-25T01:56:49.550Z,103261.53
2018-02-25T01:59:19.050Z,103259.95
2018-02-25T02:01:48.359Z,103264.34
2018-02-25T02:04:17.464Z,103262.09
2018-02-25T02:06:45.790Z,103259.11
2018-02-25T02:09:14.115Z,103253.90
2018-02-25T02:11:42.472Z,103252.11
2018-02-25T02:14:11.566Z,103253.33
2018-02-25T02:16:39.916Z,103256.45
2018-02-25T02:19:08.264Z,103256.55
2018-02-25T02:21:36.572Z,103247.94
2018-02-25T02:24:05.341Z,103252.36
2018-02-25T02:26:33.671Z,103251.05
2018-02-25T02:29:02.029Z,103253.21
2018-02-25T02:31:30.391Z,103250.81
2018-02-25T02:33:58.694Z,103250.77
2018-02-25T02:36:27.005Z,103260.52
2018-02-25T02:38:56.169Z,103255.28
2018-02-25T02:41:24.533Z,103259.98
2018-02-25T02:43:52.864Z,103248.48
2018-02-25T02:46:21.681Z,103243.95
2018-02-25T02:48:49.980Z,103245.97
2018-02-25T02:51:18.329Z,103248.98
2018-02-25T02:53:46.736Z,103239.45
2018-02-25T02:56:15.044Z,103243.91
2018-02-25T02:58:43.360Z,103243.58
2018-02-25T03:01:11.944Z,103244.42
2018-02-25T03:03:40.259Z,103240.87
2018-02-25T03:06:08.629Z,103244.02
2018-02-25T03:08:37.472Z,103240.41
2018-02-25T03:11:05.808Z,103235.98
2018-02-25T03:13:34.133Z,103234.64
2018-02-25T03:16:03.247Z,103235.72
2018-02-25T03:18:31.560Z,103242.63
2018-02-25T03:20:59.879Z,103238.62
2018-02-25T03:23:28.972Z,103247.90
2018-02-25T03:25:58.056Z,103245.97
2018-02-25T03:28:26.422Z,103242.41
2018-02-25T03:30:55.017Z,103237.73
2018-02-25T03:33:23.330Z,103241.78
2018-02-25T03:35:51.680Z,103237.94
2018-02-25T03:38:20.864Z,103240.83
2018-02-25T03:40:49.182Z,103237.73
2018-02-25T03:43:17.498Z,103244.81
2018-02-25T03:45:45.831Z,103245.74
2018-02-25T03:48:14.937Z,103237.41
2018-02-25T03:50:43.261Z,103236.37
2018-02-25T03:53:11.970Z,103237.02
2018-02-25T03:55:41.198Z,103234.30
2018-02-25T03:58:09.553Z,103235.13
2018-02-25T04:00:41.804Z,103234.88
2018-02-25T04:03:10.131Z,103244.25
2018-02-25T04:05:38.462Z,103238.83
2018-02-25T04:08:06.818Z,103240.48
2018-02-25T04:10:35.137Z,103240.48
2018-02-25T04:13:04.258Z,103242.70
2018-02-25T04:15:33.040Z,103245.73
2018-02-25T04:18:01.392Z,103240.68
2018-02-25T04:20:30.480Z,103243.86
2018-02-25T04:22:58.854Z,103250.14
2018-02-25T04:25:27.208Z,103243.33
2018-02-25T04:27:55.546Z,103248.78
2018-02-25T04:30:24.688Z,103243.08
2018-02-25T04:32:53.053Z,103249.77
2018-02-25T04:35:21.358Z,103250.62
2018-02-25T04:37:49.728Z,103251.59
2018-02-25T04:40:18.049Z,103243.42
2018-02-25T04:42:46.432Z,103241.33
2018-02-25T04:45:15.559Z,103243.41
2018-02-25T04:47:43.868Z,103246.89
2018-02-25T04:50:12.178Z,103240.39
2018-02-25T04:52:40.533Z,103241.58
2018-02-25T04:55:08.834Z,103242.97
2018-02-25T04:57:37.942Z,103236.31
2018-02-25T05:00:08.326Z,103242.66
2018-02-25T05:02:36.669Z,103247.56
2018-02-25T05:05:05.048Z,103241.89
2018-02-25T05:07:33.406Z,103239.67
2018-02-25T05:10:02.486Z,103239.25
2018-02-25T05:12:31.592Z,103240.61
2018-02-25T05:14:59.961Z,103249.48
2018-02-25T05:17:29.086Z,103247.31
2018-02-25T05:19:57.430Z,103259.30
2018-02-25T05:22:26.329Z,103259.91
2018-02-25T05:24:55.433Z,103261.38
2018-02-25T05:27:24.533Z,103259.61
2018-02-25T05:29:53.808Z,103259.66
2018-02-25T05:32:22.131Z,103268.54
2018-02-25T05:34:50.504Z,103259.14
2018-02-25T05:37:18.842Z,103257.34
2018-02-25T05:39:47.222Z,103256.30
2018-02-25T05:42:15.554Z,103260.73
2018-02-25T05:44:44.322Z,103260.63
2018-02-25T05:47:13.453Z,103259.68
2018-02-25T05:49:41.796Z,103265.02
2018-02-25T05:52:10.925Z,103270.20
2018-02-25T05:54:39.261Z,103266.16
2018-02-25T05:57:07.584Z,103265.91
2018-02-25T05:59:36.518Z,103269.64
2018-02-25T06:02:04.796Z,103266.70
2018-02-25T06:04:33.893Z,103255.26
2018-02-25T06:07:02.625Z,103264.56
2018-02-25T06:09:30.961Z,103258.81
2018-02-25T06:11:59.344Z,103252.95
2018-02-25T06:14:28.477Z,103252.28
2018-02-25T06:16:56.821Z,103252.92
2018-02-25T06:19:25.901Z,103255.94
2018-02-25T06:21:54.256Z,103255.06
2018-02-25T06:24:22.629Z,103265.17
2018-02-25T06:26:50.995Z,103254.78
2018-02-25T06:29:20.037Z,103263.99
2018-02-25T06:31:48.377Z,103263.56
2018-02-25T06:34:16.755Z,103273.30
2018-02-25T06:36:45.113Z,103265.17
2018-02-25T06:39:13.433Z,103266.31
2018-02-25T06:41:41.762Z,103268.02
2018-02-25T06:44:10.889Z,103265.75
2018-02-25T06:46:39.262Z,103267.95
2018-02-25T06:49:07.612Z,103271.55
2018-02-25T06:51:37.223Z,103271.52
2018-02-25T06:54:06.313Z,103268.80
2018-02-25T06:56:34.629Z,103268.84
2018-02-25T06:59:02.956Z,103272.88
2018-02-25T07:01:32.043Z,103269.64
2018-02-25T07:04:00.377Z,103273.98
2018-02-25T07:06:28.721Z,103278.36
2018-02-25T07:08:57.884Z,103272.65
2018-02-25T07:11:26.237Z,103276.87
2018-02-25T07:13:54.980Z,103283.87
2018-02-25T07:16:23.300Z,103282.30
2018-02-25T07:18:51.645Z,103278.29
2018-02-25T07:21:20.795Z,103283.89
2018-02-25T07:23:49.143Z,103287.39
2018-02-25T07:26:17.467Z,103290.77
2018-02-25T07:28:45.841Z,103287.61
2018-02-25T07:31:14.151Z,103291.73
2018-02-25T07:33:43.271Z,103285.75
2018-02-25T07:36:11.814Z,103286.26
2018-02-25T07:38:40.946Z,103284.45
2018-02-25T07:41:09.272Z,103278.33
2018-02-25T07:43:37.674Z,103289.78
2018-02-25T07:46:06.044Z,103279.52
2018-02-25T07:48:34.389Z,103281.61
2018-02-25T07:51:03.516Z,103279.48
2018-02-25T07:53:31.842Z,103280.89
2018-02-25T07:56:00.186Z,103288.13
2018-02-25T07:58:29.549Z,103281.41
2018-02-25T08:00:57.896Z,103281.63
2018-02-25T08:03:26.335Z,103287.25
2018-02-25T08:05:54.659Z,103281.12
2018-02-25T08:08:23.012Z,103284.67
2018-02-25T08:10:51.304Z,103289.08
2018-02-25T08:13:19.661Z,103282.77
2018-02-25T08:15:47.973Z,103284.94
2018-02-25T08:18:16.332Z,103284.66
2018-02-25T08:20:45.024Z,103281.67
2018-02-25T08:23:13.360Z,103281.44
2018-02-25T08:25:41.681Z,103278.25
2018-02-25T08:28:10.819Z,103278.41
2018-02-25T08:30:39.150Z,103283.05
2018-02-25T08:33:07.538Z,103278.80
2018-02-25T08:35:35.901Z,103278.35
2018-02-25T08:38:04.214Z,103280.91
2018-02-25T08:40:32.524Z,103274.58
2018-02-25T08:43:00.966Z,103271.55
2018-02-25T08:45:29.278Z,103272.25
2018-02-25T08:47:57.587Z,103272.21
2018-02-25T08:50:25.933Z,103272.38
2018-02-25T08:52:54.255Z,103274.10
2018-02-25T08:55:23.349Z,103277.83
2018-02-25T08:57:52.499Z,103282.09
2018-02-25T09:00:20.820Z,103284.99
2018-02-25T09:02:50.012Z,103285.27
2018-02-25T09:05:18.898Z,103282.59
2018-02-25T09:07:47.289Z,103284.84
2018-02-25T09:10:15.640Z,103288.02
2018-02-25T09:12:43.967Z,103283.83
2018-02-25T09:15:12.297Z,103285.13
2018-02-25T09:17:40.623Z,103288.83
2018-02-25T09:20:09.747Z,103282.22
2018-02-25T09:22:38.084Z,103286.65
2018-02-25T09:25:06.404Z,103284.34
2018-02-25T09:27:35.095Z,103281.92
2018-02-25T09:30:03.402Z,103284.23
2018-02-25T09:32:31.744Z,103276.93
2018-02-25T09:35:00.086Z,103277.77
2018-02-25T09:37:28.444Z,103273.22
2018-02-25T09:39:56.762Z,103268.73
2018-02-25T09:42:25.259Z,103267.04
2018-02-25T09:44:53.583Z,103267.20
2018-02-25T09:47:21.921Z,103274.46
2018-02-25T09:49:51.352Z,103267.99
2018-02-25T09:52:19.644Z,103266.09
2018-02-25T09:54:47.965Z,103262.09
2018-02-25T09:57:16.279Z,103266.84
2018-02-25T09:59:44.582Z,103261.83
2018-02-25T10:02:12.948Z,103259.03
2018-02-25T10:04:41.406Z,103258.53
2018-02-25T10:07:09.717Z,103253.19
2018-02-25T10:09:38.009Z,103245.58
2018-02-25T10:12:07.358Z,103252.61
2018-02-25T10:14:35.685Z,103249.38
2018-02-25T10:17:04.758Z,103242.56
2018-02-25T10:19:33.128Z,103237.29
2018-02-25T10:22:01.531Z,103237.63
2018-02-25T10:24:29.870Z,103237.45
2018-02-25T10:26:58.190Z,103230.98
2018-02-25T10:29:26.542Z,103227.91
2018-02-25T10:31:54.841Z,103228.89
2018-02-25T10:34:23.849Z,103222.98
2018-02-25T10:36:52.921Z,103219.13
2018-02-25T10:39:21.337Z,103221.44
2018-02-25T10:41:50.467Z,103219.83
2018-02-25T10:44:18.765Z,103209.83
2018-02-25T10:46:47.065Z,103212.54
2018-02-25T10:49:15.475Z,103204.73
2018-02-25T10:51:43.806Z,103204.56
2018-02-25T10:54:12.184Z,103202.02
2018-02-25T10:56:40.660Z,103203.15
2018-02-25T10:59:08.996Z,103196.42
2018-02-25T11:01:37.340Z,103187.69
2018-02-25T11:04:05.764Z,103195.41
2018-02-25T11:06:34.071Z,103183.85
2018-02-25T11:09:02.427Z,103187.27
2018-02-25T11:11:30.780Z,103182.92
2018-02-25T11:13:59.874Z,103186.40
2018-02-25T11:16:28.199Z,103183.00
2018-02-25T11:18:56.785Z,103177.86
2018-02-25T11:21:25.123Z,103175.52
2018-02-25T11:23:54.209Z,103173.92
2018-02-25T11:26:23.300Z,103166.44
2018-02-25T11:28:52.358Z,103160.48
2018-02-25T11:31:20.742Z,103162.33
2018-02-25T11:33:49.091Z,103156.94
2018-02-25T11:36:18.296Z,103155.32
2018-02-25T11:38:46.616Z,103155.95
2018-02-25T11:41:15.130Z,103154.60
2018-02-25T11:43:43.459Z,103143.97
2018-02-25T11:46:11.834Z,103147.31
2018-02-25T11:48:40.195Z,103153.05
2018-02-25T11:51:08.596Z,103147.51
2018-02-25T11:53:36.890Z,103146.06
2018-02-25T11:56:05.271Z,103141.91
2018-02-25T11:58:33.593Z,103136.62
2018-02-25T12:01:01.917Z,103130.45
2018-02-25T12:03:30.720Z,103133.55
2018-02-25T12:05:59.856Z,103134.64
2018-02-25T12:08:28.222Z,103133.28
2018-02-25T12:10:56.591Z,103130.51
2018-02-25T12:13:25.712Z,103129.73
2018-02-25T12:15:54.059Z,103125.10
2018-02-25T12:18:23.218Z,103128.05
2018-02-25T12:20:51.539Z,103124.78
2018-02-25T12:23:20.677Z,103125.98
2018-02-25T12:25:49.440Z,103123.11
2018-02-25T12:28:17.762Z,103115.45
2018-02-25T12:30:46.122Z,103115.72
2018-02-25T12:33:14.459Z,103118.70
2018-02-25T12:35:43.603Z,103110.89
2018-02-25T12:38:11.969Z,103104.55
2018-02-25T12:40:40.303Z,103109.08
2018-02-25T12:43:08.614Z,103102.11
2018-02-25T12:45:36.922Z,103103.73
2018-02-25T12:48:05.750Z,103093.68
2018-02-25T12:50:34.062Z,103090.63
2018-02-25T12:53:02.376Z,103093.69
2018-02-25T12:55:30.748Z,103090.47
2018-02-25T12:57:59.075Z,103081.36
2018-02-25T13:00:28.160Z,103086.77
2018-02-25T13:02:56.513Z,103077.05
2018-02-25T13:05:24.845Z,103074.91
2018-02-25T13:07:53.164Z,103066.39
2018-02-25T13:10:21.810Z,103070.05
2018-02-25T13:12:50.159Z,103064.44
2018-02-25T13:15:18.496Z,103060.78
2018-02-25T13:17:46.874Z,103056.13
2018-02-25T13:20:15.251Z,103061.94
2018-02-25T13:22:43.555Z,103062.73
2018-02-25T13:25:11.915Z,103063.06
2018-02-25T13:27:40.255Z,103054.28
2018-02-25T13:30:08.589Z,103056.58
2018-02-25T13:32:37.432Z,103055.29
2018-02-25T13:35:05.833Z,103054.19
2018-02-25T13:37:34.162Z,103054.31
2018-02-25T13:40:02.514Z,103056.34
2018-02-25T13:42:30.872Z,103053.06
2018-02-25T13:44:59.262Z,103055.32
2018-02-25T13:47:27.612Z,103052.64
2018-02-25T13:49:55.954Z,103055.89
2018-02-25T13:52:24.299Z,103048.89
2018-02-25T13:54:52.952Z,103052.50
2018-02-25T13:57:21.265Z,103040.37
2018-02-25T13:59:49.609Z,103050.27
2018-02-25T14:02:17.984Z,103042.82
2018-02-25T14:04:46.297Z,103042.56
2018-02-25T14:07:14.589Z,103047.34
2018-02-25T14:09:42.921Z,103043.67
2018-02-25T14:12:11.243Z,103039.75
2018-02-25T14:14:39.538Z,103043.77
2018-02-25T14:17:08.128Z,103040.67
2018-02-25T14:19:36.503Z,103043.20
2018-02-25T14:22:04.844Z,103036.81
2018-02-25T14:24:33.190Z,103033.94
2018-02-25T14:27:01.504Z,103040.55
2018-02-25T14:29:29.841Z,103043.15
2018-02-25T14:31:58.979Z,103034.45
2018-02-25T14:34:27.313Z,103034.80
2018-02-25T14:36:55.658Z,103037.30
2018-02-25T14:39:24.863Z,103037.67
2018-02-25T14:41:54.022Z,103035.58
2018-02-25T14:44:22.354Z,103038.19
2018-02-25T14:46:50.716Z,103039.02
2018-02-25T14:49:19.047Z,103033.39
2018-02-25T14:51:47.417Z,103033.64
2018-02-25T14:54:15.747Z,103034.10
2018-02-25T14:56:44.118Z,103028.65
2018-02-25T14:59:12.429Z,103028.83
2018-02-25T15:01:41.108Z,103027.86
2018-02-25T15:04:09.461Z,103021.73
2018-02-25T15:06:37.772Z,103034.98
2018-02-25T15:09:06.857Z,103025.61
2018-02-25T15:11:35.276Z,103020.75
2018-02-25T15:14:03.606Z,103021.10
2018-02-25T15:16:32.833Z,103023.17
2018-02-25T15:19:01.400Z,103021.45
2018-02-25T15:21:30.489Z,103020.98
2018-02-25T15:24:00.112Z,103028.53
2018-02-25T15:26:29.236Z,103027.47
2018-02-25T15:28:57.648Z,103023.89
2018-02-25T15:31:26.045Z,103024.05
2018-02-25T15:33:54.379Z,103025.52
2018-02-25T15:36:22.680Z,103022.24
2018-02-25T15:38:51.055Z,103019.17
2018-02-25T15:41:19.400Z,103018.23
2018-02-25T15:43:48.506Z,103019.23
2018-02-25T15:46:17.200Z,103020.86
2018-02-25T15:48:45.618Z,103019.52
2018-02-25T15:51:13.990Z,103020.39
2018-02-25T15:53:42.351Z,103022.47
2018-02-25T15:56:10.674Z,103015.15
2018-02-25T15:58:39.832Z,103013.59
2018-02-25T16:01:08.204Z,103020.72
2018-02-25T16:03:37.527Z,103020.77
2018-02-25T16:06:05.867Z,103014.86
2018-02-25T16:08:34.541Z,103015.31
2018-02-25T16:11:03.663Z,103015.39
2018-02-25T16:13:32.058Z,103018.12
2018-02-25T16:16:00.498Z,103025.19
2018-02-25T16:18:28.873Z,103033.27
2018-02-25T16:20:57.969Z,103026.16
2018-02-25T16:23:27.064Z,103027.42
2018-02-25T16:25:56.162Z,103031.44
2018-02-25T16:28:25.250Z,103032.09
2018-02-25T16:30:53.860Z,103036.80
2018-02-25T16:33:22.244Z,103030.89
2018-02-25T16:35:50.547Z,103031.26
2018-02-25T16:38:18.888Z,103034.41
2018-02-25T16:40:47.970Z,103037.36
2018-02-25T16:43:16.336Z,103038.23
2018-02-25T16:45:45.505Z,103035.71
2018-02-25T16:48:13.910Z,103037.77
2018-02-25T16:50:42.263Z,103036.61
2018-02-25T16:53:11.840Z,103039.84
2018-02-25T16:55:40.176Z,103036.50
2018-02-25T16:58:08.500Z,103050.52
2018-02-25T17:00:36.898Z,103047.09
2018-02-25T17:03:05.274Z,103053.19
2018-02-25T17:05:33.688Z,103050.81
2018-02-25T17:08:02.032Z,103050.39
2018-02-25T17:10:30.369Z,103054.36
2018-02-25T17:12:58.776Z,103055.47
2018-02-25T17:15:27.487Z,103054.45
2018-02-25T17:17:55.839Z,103058.84
2018-02-25T17:20:24.179Z,103061.47
2018-02-25T17:22:52.546Z,103060.16
2018-02-25T17:25:20.929Z,103067.16
2018-02-25T17:27:49.276Z,103068.29
2018-02-25T17:30:17.755Z,103067.86
2018-02-25T17:32:46.095Z,103064.37
2018-02-25T17:35:14.429Z,103071.14
2018-02-25T17:37:43.056Z,103079.69
2018-02-25T17:40:11.437Z,103067.23
2018-02-25T17:42:40.582Z,103074.17
2018-02-25T17:45:08.999Z,103076.62
2018-02-25T17:47:37.416Z,103077.45
2018-02-25T17:50:05.780Z,103083.62
2018-02-25T17:52:34.936Z,103078.91
2018-02-25T17:55:03.274Z,103080.77
2018-02-25T17:57:31.702Z,103080.19
2018-02-25T18:00:00.439Z,103069.11
2018-02-25T18:02:28.778Z,103074.53
2018-02-25T18:04:57.116Z,103070.92
2018-02-25T18:07:25.471Z,103074.75
2018-02-25T18:09:54.559Z,103074.91
2018-02-25T18:12:22.880Z,103070.91
2018-02-25T18:14:52.111Z,103069.50
2018-02-25T18:17:20.558Z,103066.33
2018-02-25T18:19:48.902Z,103065.70
2018-02-25T18:22:17.414Z,103067.77
2018-02-25T18:24:45.742Z,103070.41
2018-02-25T18:27:14.857Z,103064.28
2018-02-25T18:29:43.200Z,103070.32
2018-02-25T18:32:11.531Z,103068.84
2018-02-25T18:34:39.881Z,103063.98
2018-02-25T18:37:09.785Z,103060.84
2018-02-25T18:39:38.874Z,103064.81
2018-02-25T18:42:07.977Z,103068.94
2018-02-25T18:44:37.580Z,103069.74
2018-02-25T18:47:06.320Z,103068.05
2018-02-25T18:49:34.686Z,103070.61
2018-02-25T18:52:03.079Z,103073.66
2018-02-25T18:54:31.469Z,103068.66
2018-02-25T18:56:59.843Z,103071.28
2018-02-25T18:59:28.221Z,103074.53
2018-02-25T19:01:56.577Z,103078.44
2018-02-25T19:04:25.126Z,103079.14
2018-02-25T19:06:53.810Z,103081.28
2018-02-25T19:09:22.152Z,103076.56
2018-02-25T19:11:50.583Z,103075.91
2018-02-25T19:14:19.737Z,103077.34
2018-02-25T19:16:48.123Z,103076.20
2018-02-25T19:19:16.477Z,103075.67
2018-02-25T19:21:44.944Z,103074.95
2018-02-25T19:24:13.278Z,103071.88
2018-02-25T19:26:42.637Z,103077.75
2018-02-25T19:29:11.512Z,103075.64
2018-02-25T19:31:40.634Z,103085.34
2018-02-25T19:34:09.008Z,103085.44
2018-02-25T19:36:42.936Z,103088.03
2018-02-25T19:42:23.092Z,103081.03
2018-02-25T19:44:51.419Z,103081.88
2018-02-25T19:47:19.759Z,103085.58
2018-02-25T19:49:48.714Z,103086.04
2018-02-25T19:52:17.068Z,103086.72
2018-02-25T19:54:45.409Z,103094.23
2018-02-25T19:57:13.790Z,103096.72
2018-02-25T19:59:42.133Z,103094.49
2018-02-25T20:02:10.498Z,103088.70
2018-02-25T20:04:38.893Z,103085.47
2018-02-25T20:07:08.400Z,103090.63
2018-02-25T20:09:37.536Z,103092.27
2018-02-25T20:12:06.271Z,103093.29
2018-02-25T20:14:34.634Z,103091.88
2018-02-25T20:17:02.955Z,103091.95
2018-02-25T20:19:31.349Z,103089.78
2018-02-25T20:21:59.675Z,103096.84
2018-02-25T20:24:28.034Z,103095.48
2018-02-25T20:26:56.449Z,103088.29
2018-02-25T20:29:25.641Z,103087.56
2018-02-25T20:31:54.014Z,103090.71
2018-02-25T20:34:23.005Z,103092.98
2018-02-25T20:36:51.353Z,103094.70
2018-02-25T20:39:19.708Z,103095.80
2018-02-25T20:41:48.126Z,103102.20
2018-02-25T20:44:17.227Z,103090.83
2018-02-25T20:46:45.577Z,103095.55
2018-02-25T20:49:14.183Z,103096.84
2018-02-25T20:51:43.358Z,103093.02
2018-02-25T20:54:11.668Z,103091.67
2018-02-25T20:56:40.251Z,103089.75
2018-02-25T20:59:08.609Z,103099.78
2018-02-25T21:01:36.981Z,103102.62
2018-02-25T21:04:05.342Z,103102.83
2018-02-25T21:06:33.674Z,103097.37
2018-02-25T21:09:02.034Z,103100.36
2018-02-25T21:11:30.423Z,103100.77
2018-02-25T21:13:58.763Z,103089.56
2018-02-25T21:16:27.112Z,103093.03
2018-02-25T21:18:56.715Z,103096.72
2018-02-25T21:21:25.792Z,103093.27
2018-02-25T21:23:54.139Z,103094.37
2018-02-25T21:26:22.527Z,103099.19
2018-02-25T21:28:50.896Z,103093.88
2018-02-25T21:31:19.251Z,103095.41
2018-02-25T21:33:47.632Z,103093.94
2018-02-25T21:36:16.051Z,103095.27
2018-02-25T21:38:44.451Z,103094.18
2018-02-25T21:41:13.168Z,103093.41
2018-02-25T21:43:42.259Z,103089.33
2018-02-25T21:46:11.396Z,103090.41
2018-02-25T21:48:39.790Z,103095.91
2018-02-25T21:51:08.918Z,103090.73
2018-02-25T21:53:42.031Z,103093.58
2018-02-25T21:56:16.030Z,103089.70
2018-02-25T21:58:50.197Z,103094.78
2018-02-25T22:01:23.820Z,103098.38
2018-02-25T22:03:57.661Z,103102.87
2018-02-25T22:06:26.027Z,103101.14
2018-02-25T22:08:55.140Z,103101.19
2018-02-25T22:11:24.288Z,103103.08
2018-02-25T22:13:52.612Z,103100.55
2018-02-25T22:16:20.951Z,103099.55
2018-02-25T22:18:49.983Z,103102.80
2018-02-25T22:21:18.376Z,103100.33
2018-02-25T22:23:47.518Z,103101.77
2018-02-25T22:26:15.873Z,103100.80
2018-02-25T22:28:44.216Z,103092.49
2018-02-25T22:31:13.318Z,103089.92
2018-02-25T22:33:42.437Z,103096.19
2018-02-25T22:36:10.774Z,103095.13
2018-02-25T22:38:39.121Z,103094.91
2018-02-25T22:41:08.572Z,103100.17
2018-02-25T22:43:37.683Z,103099.16
2018-02-25T22:46:06.056Z,103099.19
2018-02-25T22:48:35.217Z,103100.40
2018-02-25T22:51:03.569Z,103102.17
2018-02-25T22:53:31.887Z,103100.02
2018-02-25T22:56:00.289Z,103104.05
2018-02-25T22:58:28.651Z,103110.34
2018-02-25T23:00:56.966Z,103112.48
2018-02-25T23:03:25.706Z,103119.56
2018-02-25T23:05:54.086Z,103118.52
2018-02-25T23:08:22.467Z,103117.48
2018-02-25T23:10:50.818Z,103109.77
2018-02-25T23:13:19.129Z,103114.13
2018-02-25T23:15:47.509Z,103120.67
2018-02-25T23:18:17.364Z,103116.81
2018-02-25T23:20:45.732Z,103114.58
2018-02-25T23:23:14.072Z,103113.70
2018-02-25T23:25:43.720Z,103113.75
2018-02-25T23:28:12.047Z,103116.89
2018-02-25T23:30:40.406Z,103112.67
2018-02-25T23:33:08.773Z,103113.67
2018-02-25T23:35:37.102Z,103117.72
2018-02-25T23:38:06.260Z,103112.56
2018-02-25T23:43:09.078Z,103123.02
2018-02-25T23:45:37.922Z,103116.34
2018-02-25T23:48:06.253Z,103112.36
2018-02-25T23:50:34.618Z,103115.30
2018-02-25T23:53:03.028Z,103113.00
2018-02-25T23:55:32.184Z,103125.28
2018-02-25T23:58:00.560Z,103122.13
